Mont Saint Michel — FNMT — position and weather

sailwx.info

Track history (hours):
 
Tides and Currents Weather Stations Pressure Air Temp Water Temp Dewpoint Dewpoint Depression Visibility Wind Speed Wind Dir Waves Ship Positions

Mont Saint Michel

Last reported at 2015-Aug-03 02:33 UTC. Time now 2015-Aug-03 02:42 UTC.
Position N 49°47' W 000°26'.

Length 173 m; beam 29 m.

Type: Ship. MMSI: 227023100.

Date/timePositionNaut miles runAvg speedWind from/ knotsBaromVisibWave heightAir tempDewpointWater temp
2015-Aug-03 02:33N 49°47' W 000°26'1715.3
2015-Aug-03 01:27N 50°03' W 000°34'1415.8
2015-Aug-03 00:33N 50°16' W 000°43'1616.1
2015-Aug-02 23:34N 50°30' W 000°54'1414.2
2015-Aug-02 22:34N 50°44' W 001°02'6 5.6
2015-Aug-02 21:33N 50°49' W 001°06'0 0.0
2015-Aug-02 20:34N 50°49' W 001°06'5 4.6
2015-Aug-02 19:33N 50°44' W 001°04'1919.4
2015-Aug-02 18:33N 50°27' W 000°50'2120.6
2015-Aug-02 17:34N 50°07' W 000°40'1818.5
2015-Aug-02 16:34N 49°50' W 000°30'2020.2
2015-Aug-02 15:33N 49°31' W 000°19'1414.1
2015-Aug-02 14:33N 49°17' W 000°15'0 0.0
2015-Aug-02 13:33N 49°17' W 000°15'2 2.1
2015-Aug-02 12:33N 49°19' W 000°15'1918.7
2015-Aug-02 11:33N 49°37' W 000°23'1817.7
2015-Aug-02 10:33N 49°54' W 000°32'2019.9
2015-Aug-02 09:33N 50°13' W 000°43'1919.4
2015-Aug-02 08:33N 50°31' W 000°53'1817.5
2015-Aug-02 07:34N 50°46' W 001°06'2 2.3
2015-Aug-02 06:33N 50°49' W 001°06'0 0.1
2015-Aug-02 05:33N 50°49' W 001°06'1211.5
2015-Aug-02 04:33N 50°38' W 000°58'1110.9
2015-Aug-02 03:33N 50°28' W 000°53'1110.9
2015-Aug-02 02:30N 50°17' W 000°46'1111.7
2015-Aug-02 01:33N 50°07' W 000°39'1211.6
2015-Aug-02 00:33N 49°56' W 000°32'1111.2
2015-Aug-01 23:33N 49°46' W 000°26'1111.4
2015-Aug-01 22:33N 49°35' W 000°20'1212.2
2015-Aug-01 21:33N 49°23' W 000°15'6 6.2
2015-Aug-01 20:33N 49°17' W 000°15'0 0.0
2015-Aug-01 19:34N 49°17' W 000°15'1312.8
2015-Aug-01 18:33N 49°29' W 000°21'2019.7
2015-Aug-01 17:33N 49°47' W 000°36'3819.0
2015-Aug-01 15:33N 50°23' W 000°52'1919.0
2015-Aug-01 14:33N 50°41' W 001°01'8 7.8
2015-Aug-01 13:33N 50°49' W 001°06'0 0.0
2015-Aug-01 12:33N 50°49' W 001°06'4 3.6
2015-Aug-01 11:34N 50°45' W 001°05'2020.1
2015-Aug-01 10:33N 50°28' W 000°49'3919.6
2015-Aug-01 08:33N 49°51' W 000°29'2020.0
2015-Aug-01 07:33N 49°32' W 000°20'1514.7
2015-Aug-01 06:33N 49°17' W 000°15'0 0.0
2015-Aug-01 05:33N 49°17' W 000°15'0 0.1
2015-Aug-01 04:33N 49°17' W 000°15'1413.8
2015-Aug-01 03:33N 49°31' W 000°19'1616.1
2015-Aug-01 02:33N 49°46' W 000°28'2215.8
2015-Aug-01 01:11N 50°06' W 000°40'1116.2
2015-Aug-01 00:31N 50°16' W 000°46'1616.8
2015-Jul-31 23:33N 50°31' W 000°54'1615.8
2015-Jul-31 22:33N 50°46' W 001°05'3 3.1
2015-Jul-31 21:33N 50°49' W 001°06'0 0.0
2015-Jul-31 20:33N 50°49' W 001°06'6 5.8
2015-Jul-31 19:33N 50°44' W 001°02'1818.1
2015-Jul-31 18:33N 50°26' W 000°52'2019.7
2015-Jul-31 17:33N 50°08' W 000°43'1919.5
2015-Jul-31 16:33N 49°49' W 000°34'1919.5
2015-Jul-31 15:33N 49°31' W 000°23'1514.5
2015-Jul-31 14:33N 49°17' W 000°15'0 0.0
2015-Jul-31 13:33N 49°17' W 000°15'3 3.2
2015-Jul-31 12:33N 49°21' W 000°14'2020.4
2015-Jul-31 11:33N 49°40' W 000°24'4221.1
2015-Jul-31 09:33N 50°20' W 000°47'2020.7
2015-Jul-31 08:33N 50°39' W 000°58'1110.8
2015-Jul-31 07:34N 50°49' W 001°06'0 0.0
2015-Jul-31 06:34N 50°49' W 001°06'0 0.1
2015-Jul-31 05:33N 50°49' W 001°06'1313.1
2015-Jul-31 04:33N 50°36' W 000°58'2411.8
2015-Jul-31 02:32N 50°13' W 000°47'1212.2
2015-Jul-31 01:33N 50°03' W 000°39'1212.4
2015-Jul-31 00:33N 49°52' W 000°31'1212.4
2015-Jul-30 23:33N 49°40' W 000°25'1211.8
2015-Jul-30 22:33N 49°29' W 000°19'1111.1
2015-Jul-30 21:33N 49°18' W 000°15'1 0.6
2015-Jul-30 20:33N 49°17' W 000°15'0 0.0
2015-Jul-30 19:33N 49°17' W 000°15'1110.7
2015-Jul-30 18:33N 49°28' W 000°20'2020.4
2015-Jul-30 17:33N 49°46' W 000°32'4019.8
2015-Jul-30 15:32N 50°24' W 000°53'1919.9
2015-Jul-30 14:33N 50°43' W 000°60'7 6.8
2015-Jul-30 13:33N 50°49' W 001°06'0 0.0
2015-Jul-30 12:33N 50°49' W 001°06'4 3.7
2015-Jul-30 11:34N 50°45' W 001°05'1918.7
2015-Jul-30 10:33N 50°28' W 000°52'4020.0
2015-Jul-30 08:33N 49°51' W 000°30'2020.4
2015-Jul-30 07:34N 49°32' W 000°20'1514.5
2015-Jul-30 06:34N 49°17' W 000°15'0 0.0
2015-Jul-30 05:33N 49°17' W 000°15'0 0.1
2015-Jul-30 04:33N 49°17' W 000°15'1414.4
2015-Jul-30 03:34N 49°31' W 000°19'1312.5
2015-Jul-30 02:34N 49°43' W 000°27'1110.8
2015-Jul-30 01:33N 49°53' W 000°32'3014.9
2015-Jul-29 23:34N 50°21' W 000°48'1515.3
2015-Jul-29 22:34N 50°35' W 000°57'1413.5
2015-Jul-29 21:33N 50°47' W 001°07'1 1.3
2015-Jul-29 20:34N 50°49' W 001°06'0 0.0
2015-Jul-29 19:33N 50°49' W 001°06'0 0.0
2015-Jul-29 18:33N 50°49' W 001°06'5 5.1
2015-Jul-29 17:33N 50°44' W 001°03'1817.7
2015-Jul-29 16:33N 50°28' W 000°51'3618.1
2015-Jul-29 14:33N 49°54' W 000°31'1818.2
2015-Jul-29 13:33N 49°37' W 000°21'1818.2
2015-Jul-29 12:33N 49°19' W 000°15'2 1.7
2015-Jul-29 11:28N 49°17' W 000°15'0 0.0
2015-Jul-29 10:30N 49°17' W 000°15'0 0.0
2015-Jul-29 09:33N 49°17' W 000°15'0 0.0
2015-Jul-29 08:33N 49°17' W 000°15'0 0.0
2015-Jul-29 07:33N 49°17' W 000°15'0 0.0
2015-Jul-29 06:33N 49°17' W 000°15'0 0.0
2015-Jul-29 05:33N 49°17' W 000°15'1110.6
2015-Jul-29 04:33N 49°28' W 000°17'1717.0
2015-Jul-29 03:34N 49°44' W 000°25'1211.7
2015-Jul-29 02:34N 49°54' W 000°33'2713.2
2015-Jul-29 00:32N 50°20' W 000°48'1515.8
2015-Jul-28 23:34N 50°34' W 000°56'1413.9
2015-Jul-28 22:33N 50°47' W 001°06'2 2.1
2015-Jul-28 21:33N 50°49' W 001°06'0 0.0
2015-Jul-28 20:33N 50°49' W 001°06'6 6.2
2015-Jul-28 19:34N 50°43' W 001°01'1919.0
2015-Jul-28 18:33N 50°26' W 000°49'4019.9
2015-Jul-28 16:33N 49°48' W 000°29'2020.0
2015-Jul-28 15:34N 49°29' W 000°19'1212.3
2015-Jul-28 14:33N 49°17' W 000°15'0 0.0
2015-Jul-28 13:33N 49°17' W 000°15'1 0.8
2015-Jul-28 12:34N 49°18' W 000°15'1818.3
2015-Jul-28 11:33N 49°36' W 000°23'6020.0
2015-Jul-28 08:33N 50°32' W 000°55'1817.7
2015-Jul-28 07:34N 50°48' W 001°07'1 1.1
2015-Jul-28 06:34N 50°49' W 001°06'0 0.1
2015-Jul-28 05:34N 50°49' W 001°06'1313.0
2015-Jul-28 04:33N 50°37' W 000°57'1515.1
2015-Jul-28 03:32N 50°23' W 000°46'2710.8
2015-Jul-28 01:04N 49°57' W 000°40'610.9
2015-Jul-28 00:33N 49°52' W 000°37'1111.2
2015-Jul-27 23:33N 49°42' W 000°29'1111.3
2015-Jul-27 22:33N 49°32' W 000°22'1110.9
2015-Jul-27 21:33N 49°22' W 000°15'4 4.2
2015-Jul-27 20:34N 49°17' W 000°15'0 0.0
2015-Jul-27 19:34N 49°17' W 000°15'1212.1
2015-Jul-27 18:33N 49°29' W 000°18'2120.8
2015-Jul-27 17:33N 49°49' W 000°27'4220.8
2015-Jul-27 15:34N 50°28' W 000°51'1919.3
2015-Jul-27 14:33N 50°45' W 001°05'4 3.6
2015-Jul-27 13:33N 50°49' W 001°06'0 0.0
2015-Jul-27 12:34N 50°49' W 001°06'5 5.0
2015-Jul-27 11:33N 50°44' W 001°03'1817.7
2015-Jul-27 10:34N 50°28' W 000°51'3919.3
2015-Jul-27 08:33N 49°52' W 000°30'2019.6
2015-Jul-27 07:34N 49°33' W 000°21'1616.3
2015-Jul-27 06:34N 49°17' W 000°15'0 0.0
2015-Jul-27 05:34N 49°17' W 000°15'0 0.0
2015-Jul-27 04:34N 49°17' W 000°15'1010.0
2015-Jul-27 03:33N 49°27' W 000°15'1413.9
2015-Jul-27 02:34N 49°40' W 000°24'1414.3
2015-Jul-27 01:33N 49°54' W 000°27'3316.6
2015-Jul-26 23:33N 50°24' W 000°49'1717.5
2015-Jul-26 22:33N 50°40' W 000°59'9 9.3
2015-Jul-26 21:34N 50°49' W 001°06'0 0.0
2015-Jul-26 20:34N 50°49' W 001°06'3 3.3
2015-Jul-26 19:34N 50°45' W 001°05'2019.3
2015-Jul-26 18:31N 50°27' W 000°51'2719.3
2015-Jul-26 17:07N 50°02' W 000°37'1119.0
2015-Jul-26 16:33N 49°52' W 000°31'1918.6
2015-Jul-26 15:33N 49°35' W 000°21'1817.9
2015-Jul-26 14:34N 49°17' W 000°15'0 0.1
2015-Jul-26 13:33N 49°17' W 000°15'1 1.0
2015-Jul-26 12:33N 49°18' W 000°15'1918.6
2015-Jul-26 11:34N 49°36' W 000°23'1919.4
2015-Jul-26 10:33N 49°54' W 000°35'3919.4
2015-Jul-26 08:34N 50°30' W 000°57'1817.9
2015-Jul-26 07:34N 50°47' W 001°06'2 1.8
2015-Jul-26 06:33N 50°49' W 001°06'0 0.1
2015-Jul-26 05:33N 50°49' W 001°06'1313.0
2015-Jul-26 04:33N 50°37' W 000°58'3712.4
2015-Jul-26 01:33N 50°02' W 000°37'1211.7
2015-Jul-26 00:33N 49°51' W 000°31'1111.1
2015-Jul-25 23:33N 49°41' W 000°25'1110.5
2015-Jul-25 22:33N 49°30' W 000°22'9 8.8
2015-Jul-25 21:33N 49°23' W 000°15'5 5.4
2015-Jul-25 20:33N 49°17' W 000°15'0 0.0
2015-Jul-25 19:33N 49°17' W 000°15'1515.3
2015-Jul-25 18:33N 49°32' W 000°22'2120.8
2015-Jul-25 17:33N 49°51' W 000°34'2921.1
2015-Jul-25 16:12N 50°18' W 000°48'1421.3
2015-Jul-25 15:33N 50°31' W 000°55'1818.1
2015-Jul-25 14:33N 50°48' W 001°07'1 1.0
2015-Jul-25 13:33N 50°49' W 001°06'0 0.0
2015-Jul-25 12:33N 50°49' W 001°06'5 4.7
2015-Jul-25 11:33N 50°44' W 001°04'1717.0
2015-Jul-25 10:33N 50°29' W 000°53'4019.8
2015-Jul-25 08:33N 49°51' W 000°33'2019.7
2015-Jul-25 07:33N 49°33' W 000°22'1616.1
2015-Jul-25 06:33N 49°17' W 000°15'0 0.0
2015-Jul-25 05:33N 49°17' W 000°15'0 0.1
2015-Jul-25 04:34N 49°17' W 000°15'1515.1
2015-Jul-25 03:33N 49°32' W 000°19'1616.4
2015-Jul-25 02:34N 49°48' W 000°27'3716.8
2015-Jul-25 00:22N 50°21' W 000°51'1417.0
2015-Jul-24 23:34N 50°34' W 000°60'1414.4
2015-Jul-24 22:33N 50°47' W 001°07'1 1.4
2015-Jul-24 21:33N 50°49' W 001°06'0 0.0
2015-Jul-24 20:33N 50°49' W 001°06'5 5.4
2015-Jul-24 19:34N 50°44' W 001°03'1919.0
2015-Jul-24 18:33N 50°25' W 000°53'2220.3
2015-Jul-24 17:29N 50°05' W 000°41'1920.9
2015-Jul-24 16:33N 49°48' W 000°29'2120.7
2015-Jul-24 15:34N 49°28' W 000°18'1111.1
2015-Jul-24 14:33N 49°17' W 000°15'0 0.0
2015-Jul-24 13:34N 49°17' W 000°15'3 2.9
2015-Jul-24 12:34N 49°20' W 000°14'2121.4
2015-Jul-24 11:33N 49°40' W 000°28'2121.0
2015-Jul-24 10:33N 49°60' W 000°39'2921.2
2015-Jul-24 09:10N 50°28' W 000°53'1320.8
2015-Jul-24 08:33N 50°40' W 000°58'1010.0
2015-Jul-24 07:33N 50°49' W 001°06'0 0.0
2015-Jul-24 06:33N 50°49' W 001°06'0 0.2
2015-Jul-24 05:33N 50°49' W 001°06'1313.0
2015-Jul-24 04:33N 50°37' W 000°58'2416.3
2015-Jul-24 03:05N 50°14' W 000°46'  
Track history (hours):
 
Tides and Currents Weather Stations Pressure Air Temp Water Temp Dewpoint Dewpoint Depression Visibility Wind Speed Wind Dir Waves Ship Positions

Mont Saint Michel

Last reported at 2015-Aug-03 02:33 UTC. Time now 2015-Aug-03 02:42 UTC.
Position N 49°47' W 000°26'.

Length 173 m; beam 29 m.

Type: Ship. MMSI: 227023100.

Date/timePositionNaut miles runAvg speedWind from/ knotsBaromVisibWave heightAir tempDewpointWater temp
2015-Aug-03 02:33N 49°47' W 000°26'1715.3
2015-Aug-03 01:27N 50°03' W 000°34'1415.8
2015-Aug-03 00:33N 50°16' W 000°43'1616.1
2015-Aug-02 23:34N 50°30' W 000°54'1414.2
2015-Aug-02 22:34N 50°44' W 001°02'6 5.6
2015-Aug-02 21:33N 50°49' W 001°06'0 0.0
2015-Aug-02 20:34N 50°49' W 001°06'5 4.6
2015-Aug-02 19:33N 50°44' W 001°04'1919.4
2015-Aug-02 18:33N 50°27' W 000°50'2120.6
2015-Aug-02 17:34N 50°07' W 000°40'1818.5
2015-Aug-02 16:34N 49°50' W 000°30'2020.2
2015-Aug-02 15:33N 49°31' W 000°19'1414.1
2015-Aug-02 14:33N 49°17' W 000°15'0 0.0
2015-Aug-02 13:33N 49°17' W 000°15'2 2.1
2015-Aug-02 12:33N 49°19' W 000°15'1918.7
2015-Aug-02 11:33N 49°37' W 000°23'1817.7
2015-Aug-02 10:33N 49°54' W 000°32'2019.9
2015-Aug-02 09:33N 50°13' W 000°43'1919.4
2015-Aug-02 08:33N 50°31' W 000°53'1817.5
2015-Aug-02 07:34N 50°46' W 001°06'2 2.3
2015-Aug-02 06:33N 50°49' W 001°06'0 0.1
2015-Aug-02 05:33N 50°49' W 001°06'1211.5
2015-Aug-02 04:33N 50°38' W 000°58'1110.9
2015-Aug-02 03:33N 50°28' W 000°53'1110.9
2015-Aug-02 02:30N 50°17' W 000°46'1111.7
2015-Aug-02 01:33N 50°07' W 000°39'1211.6
2015-Aug-02 00:33N 49°56' W 000°32'1111.2
2015-Aug-01 23:33N 49°46' W 000°26'1111.4
2015-Aug-01 22:33N 49°35' W 000°20'1212.2
2015-Aug-01 21:33N 49°23' W 000°15'6 6.2
2015-Aug-01 20:33N 49°17' W 000°15'0 0.0
2015-Aug-01 19:34N 49°17' W 000°15'1312.8
2015-Aug-01 18:33N 49°29' W 000°21'2019.7
2015-Aug-01 17:33N 49°47' W 000°36'3819.0
2015-Aug-01 15:33N 50°23' W 000°52'1919.0
2015-Aug-01 14:33N 50°41' W 001°01'8 7.8
2015-Aug-01 13:33N 50°49' W 001°06'0 0.0
2015-Aug-01 12:33N 50°49' W 001°06'4 3.6
2015-Aug-01 11:34N 50°45' W 001°05'2020.1
2015-Aug-01 10:33N 50°28' W 000°49'3919.6
2015-Aug-01 08:33N 49°51' W 000°29'2020.0
2015-Aug-01 07:33N 49°32' W 000°20'1514.7
2015-Aug-01 06:33N 49°17' W 000°15'0 0.0
2015-Aug-01 05:33N 49°17' W 000°15'0 0.1
2015-Aug-01 04:33N 49°17' W 000°15'1413.8
2015-Aug-01 03:33N 49°31' W 000°19'1616.1
2015-Aug-01 02:33N 49°46' W 000°28'2215.8
2015-Aug-01 01:11N 50°06' W 000°40'1116.2
2015-Aug-01 00:31N 50°16' W 000°46'1616.8
2015-Jul-31 23:33N 50°31' W 000°54'1615.8
2015-Jul-31 22:33N 50°46' W 001°05'3 3.1
2015-Jul-31 21:33N 50°49' W 001°06'0 0.0
2015-Jul-31 20:33N 50°49' W 001°06'6 5.8
2015-Jul-31 19:33N 50°44' W 001°02'1818.1
2015-Jul-31 18:33N 50°26' W 000°52'2019.7
2015-Jul-31 17:33N 50°08' W 000°43'1919.5
2015-Jul-31 16:33N 49°49' W 000°34'1919.5
2015-Jul-31 15:33N 49°31' W 000°23'1514.5
2015-Jul-31 14:33N 49°17' W 000°15'0 0.0
2015-Jul-31 13:33N 49°17' W 000°15'3 3.2
2015-Jul-31 12:33N 49°21' W 000°14'2020.4
2015-Jul-31 11:33N 49°40' W 000°24'4221.1
2015-Jul-31 09:33N 50°20' W 000°47'2020.7
2015-Jul-31 08:33N 50°39' W 000°58'1110.8
2015-Jul-31 07:34N 50°49' W 001°06'0 0.0
2015-Jul-31 06:34N 50°49' W 001°06'0 0.1
2015-Jul-31 05:33N 50°49' W 001°06'1313.1
2015-Jul-31 04:33N 50°36' W 000°58'2411.8
2015-Jul-31 02:32N 50°13' W 000°47'1212.2
2015-Jul-31 01:33N 50°03' W 000°39'1212.4
2015-Jul-31 00:33N 49°52' W 000°31'1212.4
2015-Jul-30 23:33N 49°40' W 000°25'1211.8
2015-Jul-30 22:33N 49°29' W 000°19'1111.1
2015-Jul-30 21:33N 49°18' W 000°15'1 0.6
2015-Jul-30 20:33N 49°17' W 000°15'0 0.0
2015-Jul-30 19:33N 49°17' W 000°15'1110.7
2015-Jul-30 18:33N 49°28' W 000°20'2020.4
2015-Jul-30 17:33N 49°46' W 000°32'4019.8
2015-Jul-30 15:32N 50°24' W 000°53'1919.9
2015-Jul-30 14:33N 50°43' W 000°60'7 6.8
2015-Jul-30 13:33N 50°49' W 001°06'0 0.0
2015-Jul-30 12:33N 50°49' W 001°06'4 3.7
2015-Jul-30 11:34N 50°45' W 001°05'1918.7
2015-Jul-30 10:33N 50°28' W 000°52'4020.0
2015-Jul-30 08:33N 49°51' W 000°30'2020.4
2015-Jul-30 07:34N 49°32' W 000°20'1514.5
2015-Jul-30 06:34N 49°17' W 000°15'0 0.0
2015-Jul-30 05:33N 49°17' W 000°15'0 0.1
2015-Jul-30 04:33N 49°17' W 000°15'1414.4
2015-Jul-30 03:34N 49°31' W 000°19'1312.5
2015-Jul-30 02:34N 49°43' W 000°27'1110.8
2015-Jul-30 01:33N 49°53' W 000°32'3014.9
2015-Jul-29 23:34N 50°21' W 000°48'1515.3
2015-Jul-29 22:34N 50°35' W 000°57'1413.5
2015-Jul-29 21:33N 50°47' W 001°07'1 1.3
2015-Jul-29 20:34N 50°49' W 001°06'0 0.0
2015-Jul-29 19:33N 50°49' W 001°06'0 0.0
2015-Jul-29 18:33N 50°49' W 001°06'5 5.1
2015-Jul-29 17:33N 50°44' W 001°03'1817.7
2015-Jul-29 16:33N 50°28' W 000°51'3618.1
2015-Jul-29 14:33N 49°54' W 000°31'1818.2
2015-Jul-29 13:33N 49°37' W 000°21'1818.2
2015-Jul-29 12:33N 49°19' W 000°15'2 1.7
2015-Jul-29 11:28N 49°17' W 000°15'0 0.0
2015-Jul-29 10:30N 49°17' W 000°15'0 0.0
2015-Jul-29 09:33N 49°17' W 000°15'0 0.0
2015-Jul-29 08:33N 49°17' W 000°15'0 0.0
2015-Jul-29 07:33N 49°17' W 000°15'0 0.0
2015-Jul-29 06:33N 49°17' W 000°15'0 0.0
2015-Jul-29 05:33N 49°17' W 000°15'1110.6
2015-Jul-29 04:33N 49°28' W 000°17'1717.0
2015-Jul-29 03:34N 49°44' W 000°25'1211.7
2015-Jul-29 02:34N 49°54' W 000°33'2713.2
2015-Jul-29 00:32N 50°20' W 000°48'1515.8
2015-Jul-28 23:34N 50°34' W 000°56'1413.9
2015-Jul-28 22:33N 50°47' W 001°06'2 2.1
2015-Jul-28 21:33N 50°49' W 001°06'0 0.0
2015-Jul-28 20:33N 50°49' W 001°06'6 6.2
2015-Jul-28 19:34N 50°43' W 001°01'1919.0
2015-Jul-28 18:33N 50°26' W 000°49'4019.9
2015-Jul-28 16:33N 49°48' W 000°29'2020.0
2015-Jul-28 15:34N 49°29' W 000°19'1212.3
2015-Jul-28 14:33N 49°17' W 000°15'0 0.0
2015-Jul-28 13:33N 49°17' W 000°15'1 0.8
2015-Jul-28 12:34N 49°18' W 000°15'1818.3
2015-Jul-28 11:33N 49°36' W 000°23'6020.0
2015-Jul-28 08:33N 50°32' W 000°55'1817.7
2015-Jul-28 07:34N 50°48' W 001°07'1 1.1
2015-Jul-28 06:34N 50°49' W 001°06'0 0.1
2015-Jul-28 05:34N 50°49' W 001°06'1313.0
2015-Jul-28 04:33N 50°37' W 000°57'1515.1
2015-Jul-28 03:32N 50°23' W 000°46'2710.8
2015-Jul-28 01:04N 49°57' W 000°40'610.9
2015-Jul-28 00:33N 49°52' W 000°37'1111.2
2015-Jul-27 23:33N 49°42' W 000°29'1111.3
2015-Jul-27 22:33N 49°32' W 000°22'1110.9
2015-Jul-27 21:33N 49°22' W 000°15'4 4.2
2015-Jul-27 20:34N 49°17' W 000°15'0 0.0
2015-Jul-27 19:34N 49°17' W 000°15'1212.1
2015-Jul-27 18:33N 49°29' W 000°18'2120.8
2015-Jul-27 17:33N 49°49' W 000°27'4220.8
2015-Jul-27 15:34N 50°28' W 000°51'1919.3
2015-Jul-27 14:33N 50°45' W 001°05'4 3.6
2015-Jul-27 13:33N 50°49' W 001°06'0 0.0
2015-Jul-27 12:34N 50°49' W 001°06'5 5.0
2015-Jul-27 11:33N 50°44' W 001°03'1817.7
2015-Jul-27 10:34N 50°28' W 000°51'3919.3
2015-Jul-27 08:33N 49°52' W 000°30'2019.6
2015-Jul-27 07:34N 49°33' W 000°21'1616.3
2015-Jul-27 06:34N 49°17' W 000°15'0 0.0
2015-Jul-27 05:34N 49°17' W 000°15'0 0.0
2015-Jul-27 04:34N 49°17' W 000°15'1010.0
2015-Jul-27 03:33N 49°27' W 000°15'1413.9
2015-Jul-27 02:34N 49°40' W 000°24'1414.3
2015-Jul-27 01:33N 49°54' W 000°27'3316.6
2015-Jul-26 23:33N 50°24' W 000°49'1717.5
2015-Jul-26 22:33N 50°40' W 000°59'9 9.3
2015-Jul-26 21:34N 50°49' W 001°06'0 0.0
2015-Jul-26 20:34N 50°49' W 001°06'3 3.3
2015-Jul-26 19:34N 50°45' W 001°05'2019.3
2015-Jul-26 18:31N 50°27' W 000°51'2719.3
2015-Jul-26 17:07N 50°02' W 000°37'1119.0
2015-Jul-26 16:33N 49°52' W 000°31'1918.6
2015-Jul-26 15:33N 49°35' W 000°21'1817.9
2015-Jul-26 14:34N 49°17' W 000°15'0 0.1
2015-Jul-26 13:33N 49°17' W 000°15'1 1.0
2015-Jul-26 12:33N 49°18' W 000°15'1918.6
2015-Jul-26 11:34N 49°36' W 000°23'1919.4
2015-Jul-26 10:33N 49°54' W 000°35'3919.4
2015-Jul-26 08:34N 50°30' W 000°57'1817.9
2015-Jul-26 07:34N 50°47' W 001°06'2 1.8
2015-Jul-26 06:33N 50°49' W 001°06'0 0.1
2015-Jul-26 05:33N 50°49' W 001°06'1313.0
2015-Jul-26 04:33N 50°37' W 000°58'3712.4
2015-Jul-26 01:33N 50°02' W 000°37'1211.7
2015-Jul-26 00:33N 49°51' W 000°31'1111.1
2015-Jul-25 23:33N 49°41' W 000°25'1110.5
2015-Jul-25 22:33N 49°30' W 000°22'9 8.8
2015-Jul-25 21:33N 49°23' W 000°15'5 5.4
2015-Jul-25 20:33N 49°17' W 000°15'0 0.0
2015-Jul-25 19:33N 49°17' W 000°15'1515.3
2015-Jul-25 18:33N 49°32' W 000°22'2120.8
2015-Jul-25 17:33N 49°51' W 000°34'2921.1
2015-Jul-25 16:12N 50°18' W 000°48'1421.3
2015-Jul-25 15:33N 50°31' W 000°55'1818.1
2015-Jul-25 14:33N 50°48' W 001°07'1 1.0
2015-Jul-25 13:33N 50°49' W 001°06'0 0.0
2015-Jul-25 12:33N 50°49' W 001°06'5 4.7
2015-Jul-25 11:33N 50°44' W 001°04'1717.0
2015-Jul-25 10:33N 50°29' W 000°53'4019.8
2015-Jul-25 08:33N 49°51' W 000°33'2019.7
2015-Jul-25 07:33N 49°33' W 000°22'1616.1
2015-Jul-25 06:33N 49°17' W 000°15'0 0.0
2015-Jul-25 05:33N 49°17' W 000°15'0 0.1
2015-Jul-25 04:34N 49°17' W 000°15'1515.1
2015-Jul-25 03:33N 49°32' W 000°19'1616.4
2015-Jul-25 02:34N 49°48' W 000°27'3716.8
2015-Jul-25 00:22N 50°21' W 000°51'1417.0
2015-Jul-24 23:34N 50°34' W 000°60'1414.4
2015-Jul-24 22:33N 50°47' W 001°07'1 1.4
2015-Jul-24 21:33N 50°49' W 001°06'0 0.0
2015-Jul-24 20:33N 50°49' W 001°06'5 5.4
2015-Jul-24 19:34N 50°44' W 001°03'1919.0
2015-Jul-24 18:33N 50°25' W 000°53'2220.3
2015-Jul-24 17:29N 50°05' W 000°41'1920.9
2015-Jul-24 16:33N 49°48' W 000°29'2120.7
2015-Jul-24 15:34N 49°28' W 000°18'1111.1
2015-Jul-24 14:33N 49°17' W 000°15'0 0.0
2015-Jul-24 13:34N 49°17' W 000°15'3 2.9
2015-Jul-24 12:34N 49°20' W 000°14'2121.4
2015-Jul-24 11:33N 49°40' W 000°28'2121.0
2015-Jul-24 10:33N 49°60' W 000°39'2921.2
2015-Jul-24 09:10N 50°28' W 000°53'1320.8
2015-Jul-24 08:33N 50°40' W 000°58'1010.0
2015-Jul-24 07:33N 50°49' W 001°06'0 0.0
2015-Jul-24 06:33N 50°49' W 001°06'0 0.2
2015-Jul-24 05:33N 50°49' W 001°06'1313.0
2015-Jul-24 04:33N 50°37' W 000°58'2416.3
2015-Jul-24 03:05N 50°14' W 000°46'  

Dump ship's entire track history